Terminal Aerodrome Forecast
Issued by NWS

Home | Current Version | Previous Version | Graphics & Text | Print | Product List | Glossary On
Versions: 1 2 3 4 5 6 7 8 9 10 11 12 13
000
FTUS45 KGGW 210520
TAFOLF
TAF
KOLF 210520Z 2106/2206 28017KT P6SM VCSH BKN100
     FM210700 27015G23KT P6SM BKN090
     FM210800 27014KT P6SM SCT090
     FM211800 28019G28KT P6SM SCT050
     FM212300 27013KT P6SM FEW050=

USA.gov is the U.S. government's official web portal to all federal, state and local government web resources and services.